Flight Track Log - Related Links

Times and Time Zones

All times are in EDT time to prevent confusion due to time zone crossing. See the SWA655 flight status page for this flight to view local times or setup timezone preferences in your user account.

Time Position Orientation Groundspeed Altitude Reporting Facility
EDT Latitude Longitude Course Direction KTS MPH feet Rate Location/Type
Mon 06:06:01 PM 37.6167 -122.3833 310° West 130 150 1,100  Level Northern Cal TRACON
Mon 06:06:55 PM 37.6500 -122.4333 310° West 189 217 3,100 2,632 Climbing Northern Cal TRACON
Mon 06:07:55 PM 37.6500 -122.5000 270° West 260 299 6,100 2,783 Climbing Northern Cal TRACON
Mon 06:09:13 PM 37.5569 -122.5050 182° South 278 320 9,500 3,065 Climbing Oakland Center
Mon 06:10:14 PM 37.4731 -122.4067 137° Southeast 348 400 13,200 3,492 Climbing Oakland Center
Mon 06:11:15 PM 37.3986 -122.3031 132° Southeast 389 448 16,600 3,024 Climbing Oakland Center
Mon 06:12:17 PM 37.3139 -122.1906 133° Southeast 432 497 19,400 2,829 Climbing Oakland Center
Mon 06:13:18 PM 37.2269 -122.0689 132° Southeast 463 533 22,400 1,770 Climbing Oakland Center
Mon 06:14:19 PM 37.1369 -121.9472 133° Southeast 475 547 23,000 295 Climbing Oakland Center
Mon 06:15:20 PM 37.0475 -121.8250 132° Southeast 477 549 23,000  Level Oakland Center
Mon 06:16:21 PM 36.9564 -121.7042 133° Southeast 480 552 23,000  Level Oakland Center
Mon 06:17:22 PM 36.8664 -121.5803 132° Southeast 481 554 23,000  Level Oakland Center
Mon 06:18:23 PM 36.7714 -121.4519 133° Southeast 483 556 23,000  Level Oakland Center
Mon 06:19:24 PM 36.6750 -121.3258 134° Southeast 503 579 23,000 -49 Level Oakland Center
Mon 06:20:25 PM 36.5775 -121.1967 133° Southeast 511 588 22,900  Descending Oakland Center
Mon 06:21:26 PM 36.4814 -121.0642 132° Southeast 514 592 23,000 49 Climbing Oakland Center
Mon 06:22:27 PM 36.3819 -120.9356 134° Southeast 516 594 23,000 -49 Level Oakland Center
Mon 06:23:29 PM 36.2831 -120.8036 133° Southeast 521 600 22,900  Descending Oakland Center
Mon 06:24:30 PM 36.1647 -120.6486 133° Southeast 516 594 23,000 49 Climbing Oakland Center
Mon 06:25:31 PM 36.0647 -120.5183 133° Southeast 521 600 23,000 -49 Level Oakland Center
Mon 06:26:32 PM 35.9642 -120.3872 133° Southeast 520 598 22,900  Descending Oakland Center
Mon 06:27:33 PM 35.8647 -120.2592 134° Southeast 515 593 23,000 49 Climbing Oakland Center
Mon 06:28:34 PM 35.7650 -120.1306 134° Southeast 516 594 23,000  Level Oakland Center
Mon 06:29:35 PM 35.6633 -119.9997 134° Southeast 524 603 23,000  Level Oakland Center
Mon 06:30:36 PM 35.5439 -119.8908 143° Southeast 532 612 23,000  Level Oakland Center
Mon 06:31:37 PM 35.4192 -119.7825 145° Southeast 541 623 23,000  Level Oakland Center
Mon 06:32:39 PM 35.2947 -119.6753 145° Southeast 544 626 23,000  Level Oakland Center
Mon 06:33:40 PM 35.1703 -119.5686 145° Southeast 545 627 23,000  Level Oakland Center
Mon 06:34:41 PM 35.0469 -119.4628 145° Southeast 541 623 23,000  Level Oakland Center
Mon 06:35:42 PM 34.9225 -119.3567 145° Southeast 543 625 23,000  Level Oakland Center
Mon 06:35:57 PM 34.8983 -119.3356 144° Southeast 542 624 23,000 -67 Level Los Angeles Center
Mon 06:37:11 PM 34.7483 -119.2083 145° Southeast 546 628 22,900 -1,279 Descending Los Angeles Center
Mon 06:38:13 PM 34.6183 -119.0992 145° Southeast 533 613 20,100 -2,710 Descending Los Angeles Center
Mon 06:39:15 PM 34.4803 -118.9858 146° Southeast 493 567 17,300 -2,419 Descending Los Angeles Center
Mon 06:40:17 PM 34.3739 -118.8975 146° Southeast 462 532 15,100 -2,177 Descending Los Angeles Center
Mon 06:41:19 PM 34.2578 -118.8458 160° South 443 510 12,800 -1,500 Descending Los Angeles Center
Mon 06:42:21 PM 34.1467 -118.8050 163° South 415 478 12,000 -968 Descending Los Angeles Center
Mon 06:43:23 PM 34.0450 -118.7447 154° Southeast 373 429 10,800 -968 Descending Los Angeles Center
Mon 06:44:25 PM 34.0283 -118.6436 101° East 310 357 10,000 -1,161 Descending Los Angeles Center
Mon 06:45:27 PM 34.0172 -118.5350 97° East 304 350 8,400 -1,220 Descending Los Angeles Center
Mon 06:46:28 PM 34.0128 -118.4414 93° East 281 323 7,500 -1,024 Descending Los Angeles Center
Mon 06:47:30 PM 34.0194 -118.3675 84° East 231 266 6,300 -1,548 Descending Los Angeles Center
Mon 06:48:32 PM 34.0239 -118.3028 85° East 202 232 4,300 -1,645 Descending Los Angeles Center
Mon 06:49:34 PM 33.9889 -118.2767 148° Southeast 188 216 2,900 -1,161 Descending Los Angeles Center
Mon 06:50:36 PM 33.9614 -118.3058 221° Southwest 164 189 1,900 -871 Descending Los Angeles Center
Mon 06:51:38 PM 33.9583 -118.3486 265° West 142 163 1,100 -823 Descending Los Angeles Center
Mon 06:52:40 PM 33.9528 -118.3994 263° West 132 152 200 -871 Descending Los Angeles Center
Mon 06:54:00 PM 33.9333 -118.4000 228° Southwest  Level FlightAware Approximate
Mon 07:01:00 PM 33.9425 -118.4081 228° Southwest  Level Estimated

Login

Don't have an account? Register now (free) for customized features, flight alerts, and more!